Terminal Aerodrome Forecast
Issued by NWS

Home | Current Version | Previous Version | Graphics & Text | Print | Product List | Glossary On
Versions: 1 2 3 4 5 6 7 8 9 10 11 12 13 14 15 16 17 18 19 20 21
000
FTUS43 KGRB 222329
TAFRHI
TAF
KRHI 222329Z 2300/2324 19008KT P6SM BKN200
     FM230200 21007KT P6SM BKN250 WS012/22040KT
     FM231400 22010G17KT P6SM SCT035 BKN250=

USA.gov is the U.S. government's official web portal to all federal, state and local government web resources and services.